Flight Track Log - Related Links

Times and Time Zones

All times are in EDT time to prevent confusion due to time zone crossing. See the EJA982 flight status page for this flight to view local times or setup timezone preferences in your user account.

Time Position Orientation Groundspeed Altitude Reporting Facility
EDT Latitude Longitude Course Direction KTS MPH feet Rate Location/Type
Sat 02:52:27 PM 35.5947 -106.1028 North 203 234 7,600  Level Albuquerque Center
Sat 02:53:29 PM 35.5689 -106.0403 117° Southeast 260 299 11,400 3,610 Climbing Albuquerque Center
Sat 02:54:30 PM 35.6300 -106.0197 15° North 247 284 15,000 3,415 Climbing Albuquerque Center
Sat 02:55:32 PM 35.6889 -106.0728 324° Northwest 257 296 18,400 2,976 Climbing Albuquerque Center
Sat 02:56:00 PM 36.4891 -105.9470 North  Level FlightAware Approximate
Sat 02:56:33 PM 35.7500 -106.1381 319° Northwest 280 322 21,100  Level Albuquerque Center
Sat 02:57:00 PM 36.5984 -105.9325 North  Level FlightAware Approximate
Sat 02:57:35 PM 35.8436 -106.1606 349° North 335 386 23,000  Level Albuquerque Center
Sat 02:58:36 PM 35.9694 -106.1289 12° North 381 438 25,300 1,902 Climbing Albuquerque Center
Sat 02:59:38 PM 36.0822 -106.1047 10° North 402 463 26,900 829 Climbing Albuquerque Center
Sat 03:00:39 PM 36.2075 -106.0778 10° North 445 512 27,000 49 Climbing Albuquerque Center
Sat 03:01:41 PM 36.3447 -106.0481 10° North 488 562 27,000  Level Albuquerque Center
Sat 03:02:42 PM 36.4994 -106.0128 10° North 507 583 27,000  Level Albuquerque Center
Sat 03:03:52 PM 36.6550 -105.9769 10° North 518 596 27,000  Level Denver Center
Sat 03:04:53 PM 36.8072 -105.9431 10° North 520 598 27,000  Level Denver Center
Sat 03:05:55 PM 36.9436 -105.9100 11° North 521 600 27,000  Level Denver Center
Sat 03:06:57 PM 37.0906 -105.8819 North 518 596 27,000  Level Denver Center
Sat 03:07:59 PM 37.2450 -105.9250 347° North 511 588 27,000  Level Denver Center
Sat 03:09:00 PM 37.3758 -105.9706 345° North 506 582 27,000 -49 Level Denver Center
Sat 03:10:02 PM 37.5272 -106.0233 345° North 505 581 26,900 -339 Descending Denver Center
Sat 03:11:04 PM 37.6506 -106.0678 344° North 509 586 26,300 -968 Descending Denver Center
Sat 03:12:06 PM 37.7939 -106.1186 344° North 482 555 24,900 -1,463 Descending Denver Center
Sat 03:13:07 PM 37.9003 -106.1547 345° North 432 497 23,300 -927 Descending Denver Center
Sat 03:14:09 PM 38.0047 -106.1947 343° North 398 458 23,000 -532 Descending Denver Center
Sat 03:15:11 PM 38.1278 -106.2400 344° North 411 473 22,200 -871 Descending Denver Center
Sat 03:16:13 PM 38.2361 -106.2783 344° North 407 468 21,200 -585 Descending Denver Center
Sat 03:17:14 PM 38.3400 -106.3144 345° North 391 450 21,000 -98 Descending Denver Center
Sat 03:18:16 PM 38.4450 -106.3569 342° North 393 452 21,000 -339 Level Denver Center
Sat 03:19:18 PM 38.5481 -106.4122 337° Northwest 400 460 20,300 -1,355 Descending Denver Center
Sat 03:20:20 PM 38.6483 -106.4653 338° Northwest 394 453 18,200 -1,610 Descending Denver Center
Sat 03:21:21 PM 38.7386 -106.5142 337° Northwest 361 415 17,000 -585 Descending Denver Center
Sat 03:22:23 PM 38.8433 -106.5689 338° Northwest 340 391 17,000 -48 Level Denver Center
Sat 03:23:25 PM 38.9367 -106.6206 337° Northwest 351 404 16,900 -49 Descending Denver Center
Sat 03:24:26 PM 39.0322 -106.6722 337° Northwest 366 421 16,900 -390 Level Denver Center
Sat 03:25:28 PM 39.1217 -106.7211 337° Northwest 355 409 16,100 -823 Descending Denver Center
Sat 03:26:30 PM 39.1958 -106.7611 337° Northwest 303 349 15,200 -823 Descending Denver Center
Sat 03:27:32 PM 39.2528 -106.7919 337° Northwest 237 273 14,400 -780 Descending Denver Center
Sat 03:28:33 PM 39.3083 -106.8225 337° Northwest 218 251 13,600 -634 Descending Denver Center
Sat 03:29:35 PM 39.3667 -106.8583 335° Northwest 231 266 13,100 -1,161 Descending Denver Center
Sat 03:30:37 PM 39.3742 -106.9294 278° West 203 234 11,200 -1,403 Descending Denver Center
Sat 03:31:39 PM 39.3289 -106.9414 192° South 174 200 10,200 -1,210 Descending Denver Center
Sat 03:32:41 PM 39.2878 -106.9081 148° Southeast 177 204 8,700 -829 Descending Denver Center
Sat 03:33:42 PM 39.2567 -106.8561 128° Southeast 179 206 8,500 -197 Descending Denver Center

Login

Don't have an account? Register now (free) for customized features, flight alerts, and more!